createdAt,value
2022-11-25T00:01:16.751Z,32.70
2022-11-25T00:03:44.583Z,9.70
2022-11-25T00:06:19.931Z,11.13
2022-11-25T00:08:49.591Z,22.53
2022-11-25T00:11:17.238Z,26.57
2022-11-25T00:13:45.262Z,26.23
2022-11-25T00:16:14.835Z,16.63
2022-11-25T00:18:45.732Z,9.77
2022-11-25T00:21:18.700Z,7.83
2022-11-25T00:23:50.492Z,12.70
2022-11-25T00:26:17.399Z,8.27
2022-11-25T00:28:45.745Z,9.73
2022-11-25T00:31:16.160Z,10.67
2022-11-25T00:33:43.838Z,12.90
2022-11-25T00:36:23.469Z,15.53
2022-11-25T00:39:13.109Z,11.10
2022-11-25T00:41:58.742Z,11.63
2022-11-25T00:44:40.404Z,9.63
2022-11-25T00:47:19.419Z,6.50
2022-11-25T00:49:50.732Z,17.07
2022-11-25T00:52:26.790Z,24.10
2022-11-25T00:54:54.313Z,16.53
2022-11-25T00:57:23.421Z,15.33
2022-11-25T00:59:50.242Z,14.57
2022-11-25T01:02:18.414Z,12.17
2022-11-25T01:04:46.032Z,12.60
2022-11-25T01:07:13.359Z,20.67
2022-11-25T01:09:40.282Z,21.87
2022-11-25T01:12:10.168Z,27.80
2022-11-25T01:14:37.355Z,18.27
2022-11-25T01:17:04.893Z,12.87
2022-11-25T01:19:31.698Z,17.13
2022-11-25T01:21:58.510Z,24.23
2022-11-25T01:24:26.474Z,24.47
2022-11-25T01:26:55.390Z,17.80
2022-11-25T01:29:22.277Z,17.00
2022-11-25T01:31:49.197Z,12.70
2022-11-25T01:34:22.912Z,19.40
2022-11-25T01:36:50.187Z,42.17
2022-11-25T01:39:18.675Z,39.77
2022-11-25T01:41:46.007Z,19.83
2022-11-25T01:44:14.221Z,25.00
2022-11-25T01:47:05.510Z,28.33
2022-11-25T01:49:44.145Z,53.80
2022-11-25T01:52:37.295Z,76.37
2022-11-25T01:55:20.211Z,19.87
2022-11-25T01:58:04.631Z,23.43
2022-11-25T02:00:32.081Z,13.37
2022-11-25T02:03:02.090Z,31.17
2022-11-25T02:05:50.788Z,20.80
2022-11-25T02:08:19.222Z,25.53
2022-11-25T02:10:46.621Z,27.27
2022-11-25T02:13:13.459Z,19.80
2022-11-25T02:15:40.323Z,10.17
2022-11-25T02:18:07.640Z,23.40
2022-11-25T02:20:34.557Z,29.67
2022-11-25T02:23:25.705Z,26.63
2022-11-25T02:25:54.347Z,9.77
2022-11-25T02:28:27.059Z,23.03
2022-11-25T02:30:54.313Z,38.23
2022-11-25T02:33:21.577Z,18.90
2022-11-25T02:36:12.579Z,20.60
2022-11-25T02:38:48.221Z,21.47
2022-11-25T02:41:22.693Z,21.73
2022-11-25T02:43:49.506Z,19.30
2022-11-25T02:46:22.446Z,34.47
2022-11-25T02:51:38.291Z,17.83
2022-11-25T02:54:05.625Z,16.30
2022-11-25T02:56:35.317Z,23.77
2022-11-25T02:59:02.695Z,13.60
2022-11-25T03:01:31.617Z,10.50
2022-11-25T03:03:59.085Z,12.40
2022-11-25T03:06:26.013Z,6.80
2022-11-25T03:08:53.535Z,13.37
2022-11-25T03:11:20.385Z,8.97
2022-11-25T03:13:47.212Z,8.77
2022-11-25T03:16:14.243Z,15.17
2022-11-25T03:18:41.121Z,15.80
2022-11-25T03:21:07.934Z,19.30
2022-11-25T03:23:34.753Z,21.90
2022-11-25T03:26:06.084Z,7.03
2022-11-25T03:28:32.944Z,7.93
2022-11-25T03:30:59.798Z,35.23
2022-11-25T03:33:26.609Z,11.50
2022-11-25T03:35:53.399Z,14.73
2022-11-25T03:38:21.626Z,11.63
2022-11-25T03:40:48.476Z,11.30
2022-11-25T03:43:15.343Z,26.10
2022-11-25T03:45:42.252Z,34.63
2022-11-25T03:48:09.166Z,8.67
2022-11-25T03:50:36.132Z,11.50
2022-11-25T03:53:02.994Z,25.30
2022-11-25T03:55:29.847Z,9.53
2022-11-25T03:58:02.865Z,19.13
2022-11-25T04:00:30.480Z,59.97
2022-11-25T04:02:57.357Z,20.67
2022-11-25T04:05:24.186Z,9.77
2022-11-25T04:07:56.317Z,22.23
2022-11-25T04:10:24.783Z,12.63
2022-11-25T04:12:52.565Z,39.30
2022-11-25T04:15:20.117Z,12.67
2022-11-25T04:17:46.937Z,14.10
2022-11-25T04:20:14.787Z,27.03
2022-11-25T04:22:42.107Z,15.80
2022-11-25T04:25:09.589Z,8.93
2022-11-25T04:27:36.599Z,16.03
2022-11-25T04:30:04.188Z,9.43
2022-11-25T04:32:31.254Z,11.97
2022-11-25T04:34:58.098Z,24.50
2022-11-25T04:37:28.541Z,19.70
2022-11-25T04:39:55.442Z,11.50
2022-11-25T04:42:32.332Z,8.87
2022-11-25T04:45:22.040Z,8.03
2022-11-25T04:47:47.646Z,14.30
2022-11-25T04:50:21.379Z,13.67
2022-11-25T04:52:48.661Z,14.73
2022-11-25T04:55:16.655Z,14.75
2022-11-25T04:57:43.641Z,10.30
2022-11-25T05:00:11.213Z,19.20
2022-11-25T05:02:38.155Z,10.13
2022-11-25T05:05:05.921Z,10.07
2022-11-25T05:07:33.069Z,7.90
2022-11-25T05:10:00.033Z,19.97
2022-11-25T05:12:28.928Z,11.57
2022-11-25T05:14:57.884Z,19.20
2022-11-25T05:17:28.011Z,12.30
2022-11-25T05:19:55.218Z,11.00
2022-11-25T05:22:24.810Z,13.73
2022-11-25T05:24:51.870Z,13.77
2022-11-25T05:27:20.805Z,32.50
2022-11-25T05:29:51.511Z,11.43
2022-11-25T05:32:22.453Z,19.93
2022-11-25T05:34:49.304Z,17.60
2022-11-25T05:37:18.792Z,20.03
2022-11-25T05:39:49.586Z,35.57
2022-11-25T05:42:16.478Z,17.83
2022-11-25T05:44:44.306Z,23.23
2022-11-25T05:47:11.178Z,26.80
2022-11-25T05:49:38.071Z,19.40
2022-11-25T05:52:05.047Z,50.87
2022-11-25T05:54:31.868Z,21.93
2022-11-25T05:56:59.030Z,17.60
2022-11-25T05:59:25.907Z,20.93
2022-11-25T06:01:55.823Z,25.27
2022-11-25T06:04:22.827Z,19.83
2022-11-25T06:06:49.736Z,33.50
2022-11-25T06:09:16.597Z,26.43
2022-11-25T06:11:43.408Z,28.67
2022-11-25T06:14:32.713Z,34.17
2022-11-25T06:16:57.873Z,18.20
2022-11-25T06:19:24.710Z,32.90
2022-11-25T06:21:51.649Z,49.73
2022-11-25T06:24:18.507Z,19.23
2022-11-25T06:26:45.337Z,35.10
2022-11-25T06:29:12.217Z,48.87
2022-11-25T06:31:39.142Z,37.50
2022-11-25T06:34:08.467Z,27.53
2022-11-25T06:36:35.315Z,10.93
2022-11-25T06:39:02.533Z,27.53
2022-11-25T06:41:29.414Z,37.60
2022-11-25T06:43:56.229Z,37.03
2022-11-25T06:46:25.256Z,62.17
2022-11-25T06:48:53.421Z,45.17
2022-11-25T06:51:20.465Z,24.37
2022-11-25T06:53:48.030Z,17.57
2022-11-25T06:56:21.952Z,35.10
2022-11-25T06:58:50.202Z,20.83
2022-11-25T07:01:17.046Z,13.17
2022-11-25T07:03:45.363Z,13.00
2022-11-25T07:06:13.676Z,13.13
2022-11-25T07:08:41.402Z,14.20
2022-11-25T07:11:22.320Z,23.23
2022-11-25T07:13:53.219Z,38.60
2022-11-25T07:16:20.262Z,37.23
2022-11-25T07:18:47.320Z,46.77
2022-11-25T07:21:16.920Z,37.43
2022-11-25T07:23:45.475Z,56.23
2022-11-25T07:26:17.956Z,31.50
2022-11-25T07:28:45.381Z,29.67
2022-11-25T07:31:27.322Z,25.77
2022-11-25T07:34:00.861Z,23.37
2022-11-25T07:36:28.767Z,23.47
2022-11-25T07:38:57.121Z,20.80
2022-11-25T07:41:25.772Z,18.10
2022-11-25T07:44:04.470Z,16.43
2022-11-25T07:46:38.883Z,20.37
2022-11-25T07:49:08.366Z,16.00
2022-11-25T07:51:41.920Z,15.93
2022-11-25T07:54:12.660Z,25.53
2022-11-25T07:56:41.251Z,23.60
2022-11-25T07:59:12.446Z,23.40
2022-11-25T08:01:39.384Z,22.63
2022-11-25T08:04:08.775Z,16.60
2022-11-25T08:06:40.139Z,17.90
2022-11-25T08:09:07.106Z,15.30
2022-11-25T08:11:33.889Z,16.37
2022-11-25T08:14:00.875Z,20.77
2022-11-25T08:16:31.443Z,11.70
2022-11-25T08:19:05.137Z,13.50
2022-11-25T08:21:31.968Z,9.80
2022-11-25T08:23:58.715Z,10.77
2022-11-25T08:26:30.324Z,10.73
2022-11-25T08:29:01.088Z,8.77
2022-11-25T08:31:33.995Z,9.30
2022-11-25T08:34:04.059Z,7.77
2022-11-25T08:36:31.322Z,9.93
2022-11-25T08:39:00.773Z,8.57
2022-11-25T08:41:29.383Z,9.83
2022-11-25T08:43:57.655Z,12.17
2022-11-25T08:46:28.173Z,9.90
2022-11-25T08:48:54.986Z,9.83
2022-11-25T08:51:25.169Z,7.73
2022-11-25T08:53:52.395Z,7.57
2022-11-25T08:56:25.464Z,9.03
2022-11-25T08:58:53.250Z,9.33
2022-11-25T09:01:21.480Z,9.50
2022-11-25T09:03:50.851Z,10.53
2022-11-25T09:06:18.949Z,9.07
2022-11-25T09:08:46.484Z,10.07
2022-11-25T09:11:14.303Z,10.00
2022-11-25T09:13:41.276Z,10.93
2022-11-25T09:16:09.426Z,9.13
2022-11-25T09:18:37.267Z,10.47
2022-11-25T09:21:09.886Z,10.43
2022-11-25T09:23:38.578Z,8.73
2022-11-25T09:26:06.841Z,11.60
2022-11-25T09:28:34.758Z,10.03
2022-11-25T09:31:09.651Z,9.20
2022-11-25T09:33:36.809Z,12.43
2022-11-25T09:36:06.014Z,9.43
2022-11-25T09:38:34.206Z,12.57
2022-11-25T09:41:06.452Z,10.87
2022-11-25T09:43:51.792Z,12.07
2022-11-25T09:46:44.141Z,9.27
2022-11-25T09:49:23.090Z,9.60
2022-11-25T09:52:23.491Z,9.77
2022-11-25T09:55:13.508Z,9.77
2022-11-25T09:58:11.143Z,12.70
2022-11-25T10:00:43.992Z,9.27
2022-11-25T10:03:25.939Z,11.93
2022-11-25T10:06:01.788Z,12.57
2022-11-25T10:08:38.979Z,9.50
2022-11-25T10:11:19.049Z,10.50
2022-11-25T10:13:52.729Z,10.07
2022-11-25T10:16:35.383Z,11.77
2022-11-25T10:19:13.704Z,11.40
2022-11-25T10:21:40.559Z,10.40
2022-11-25T10:24:14.596Z,12.07
2022-11-25T10:26:45.169Z,9.73
2022-11-25T10:29:23.763Z,12.63
2022-11-25T10:31:56.252Z,12.07
2022-11-25T10:34:46.966Z,9.83
2022-11-25T10:37:23.106Z,11.70
2022-11-25T10:39:50.054Z,10.93
2022-11-25T10:42:23.120Z,12.53
2022-11-25T10:44:50.309Z,11.60
2022-11-25T10:47:29.337Z,10.30
2022-11-25T10:50:37.282Z,10.93
2022-11-25T10:53:17.293Z,12.47
2022-11-25T10:56:11.861Z,12.77
2022-11-25T10:58:40.543Z,13.37
2022-11-25T11:01:18.123Z,15.23
2022-11-25T11:03:50.625Z,10.43
2022-11-25T11:06:36.704Z,12.47
2022-11-25T11:09:04.337Z,13.70
2022-11-25T11:11:32.136Z,11.33
2022-11-25T11:14:13.204Z,11.97
2022-11-25T11:16:52.356Z,12.10
2022-11-25T11:19:29.180Z,11.40
2022-11-25T11:21:57.188Z,10.40
2022-11-25T11:24:32.258Z,11.93
2022-11-25T11:27:06.492Z,12.40
2022-11-25T11:29:33.328Z,15.33
2022-11-25T11:32:02.904Z,11.60
2022-11-25T11:34:51.023Z,11.40
2022-11-25T11:37:47.662Z,11.63
2022-11-25T11:40:22.233Z,10.23
2022-11-25T11:42:52.146Z,13.03
2022-11-25T11:45:24.949Z,13.23
2022-11-25T11:48:24.021Z,14.93
2022-11-25T11:50:57.977Z,11.73
2022-11-25T11:53:39.951Z,13.83
2022-11-25T11:56:34.644Z,15.40
2022-11-25T11:59:30.355Z,11.90
2022-11-25T12:02:15.390Z,12.10
2022-11-25T12:04:51.303Z,16.77
2022-11-25T12:07:32.832Z,21.17
2022-11-25T12:10:17.909Z,26.30
2022-11-25T12:13:05.843Z,15.97
2022-11-25T12:16:08.063Z,13.90
2022-11-25T12:19:20.568Z,15.37
2022-11-25T12:22:14.643Z,13.70
2022-11-25T12:24:56.361Z,12.30
2022-11-25T12:27:58.649Z,15.17
2022-11-25T12:30:48.328Z,13.83
2022-11-25T12:33:37.328Z,17.80
2022-11-25T12:36:38.029Z,13.73
2022-11-25T12:39:36.679Z,12.37
2022-11-25T12:42:15.458Z,15.27
2022-11-25T12:45:20.638Z,13.10
2022-11-25T12:47:47.589Z,11.97
2022-11-25T12:50:25.441Z,13.10
2022-11-25T12:53:07.507Z,13.10
2022-11-25T12:55:40.699Z,13.67
2022-11-25T12:58:10.390Z,15.93
2022-11-25T13:01:14.797Z,14.93
2022-11-25T13:04:03.642Z,14.63
2022-11-25T13:06:52.384Z,15.50
2022-11-25T13:09:41.047Z,14.83
2022-11-25T13:12:11.440Z,13.47
2022-11-25T13:15:16.503Z,14.53
2022-11-25T13:17:46.132Z,14.63
2022-11-25T13:20:33.710Z,14.00
2022-11-25T13:23:08.456Z,12.83
2022-11-25T13:25:40.593Z,14.27
2022-11-25T13:28:33.574Z,14.27
2022-11-25T13:31:21.318Z,16.57
2022-11-25T13:33:48.237Z,16.53
2022-11-25T13:36:20.442Z,16.53
2022-11-25T13:38:50.344Z,17.37
2022-11-25T13:41:20.015Z,16.23
2022-11-25T13:44:05.089Z,15.67
2022-11-25T13:46:49.114Z,16.20
2022-11-25T13:49:38.395Z,16.17
2022-11-25T13:52:11.305Z,14.90
2022-11-25T13:54:48.258Z,16.57
2022-11-25T13:57:23.852Z,18.23
2022-11-25T13:59:50.657Z,17.43
2022-11-25T14:02:28.113Z,16.07
2022-11-25T14:05:18.903Z,15.83
2022-11-25T14:07:57.775Z,17.43
2022-11-25T14:10:56.516Z,16.60
2022-11-25T14:14:04.516Z,16.43
2022-11-25T14:16:57.632Z,18.87
2022-11-25T14:19:53.119Z,15.43
2022-11-25T14:22:38.818Z,18.83
2022-11-25T14:25:14.213Z,20.53
2022-11-25T14:27:46.907Z,17.20
2022-11-25T14:30:15.119Z,18.60
2022-11-25T14:32:57.695Z,17.57
2022-11-25T14:35:49.165Z,15.10
2022-11-25T14:38:34.981Z,17.77
2022-11-25T14:41:16.380Z,16.57
2022-11-25T14:43:52.804Z,17.40
2022-11-25T14:46:25.576Z,15.37
2022-11-25T14:48:55.597Z,18.00
2022-11-25T14:51:23.842Z,16.00
2022-11-25T14:53:53.180Z,16.60
2022-11-25T14:56:27.839Z,16.20
2022-11-25T14:58:59.240Z,16.77
2022-11-25T15:01:28.875Z,15.07
2022-11-25T15:04:19.251Z,14.50
2022-11-25T15:06:52.815Z,17.40
2022-11-25T15:09:26.394Z,15.03
2022-11-25T15:12:06.563Z,18.23
2022-11-25T15:14:40.339Z,29.23
2022-11-25T15:17:09.150Z,38.10
2022-11-25T15:19:37.132Z,29.53
2022-11-25T15:22:22.399Z,24.77
2022-11-25T15:24:55.001Z,21.63
2022-11-25T15:27:27.086Z,18.57
2022-11-25T15:29:55.260Z,19.60
2022-11-25T15:32:32.261Z,17.40
2022-11-25T15:35:01.858Z,17.10
2022-11-25T15:37:29.191Z,16.93
2022-11-25T15:40:36.686Z,14.50
2022-11-25T15:43:07.038Z,13.97
2022-11-25T15:45:44.244Z,16.27
2022-11-25T15:48:26.014Z,18.77
2022-11-25T15:50:56.779Z,16.13
2022-11-25T15:53:31.657Z,13.13
2022-11-25T15:56:01.595Z,15.97
2022-11-25T15:58:28.631Z,13.73
2022-11-25T16:01:07.829Z,12.10
2022-11-25T16:03:35.613Z,14.13
2022-11-25T16:06:03.104Z,11.93
2022-11-25T16:08:37.590Z,12.03
2022-11-25T16:11:19.404Z,14.40
2022-11-25T16:13:48.315Z,14.70
2022-11-25T16:16:29.915Z,14.30
2022-11-25T16:19:02.871Z,17.93
2022-11-25T16:21:44.066Z,12.33
2022-11-25T16:24:20.305Z,22.43
2022-11-25T16:26:54.189Z,20.57
2022-11-25T16:29:50.176Z,18.60
2022-11-25T16:32:19.802Z,19.60
2022-11-25T16:34:47.138Z,21.23
2022-11-25T16:37:14.193Z,21.10
2022-11-25T16:39:41.031Z,19.73
2022-11-25T16:42:14.507Z,32.57
2022-11-25T16:44:41.313Z,29.33
2022-11-25T16:47:10.620Z,50.17
2022-11-25T16:49:37.796Z,46.07
2022-11-25T16:52:04.946Z,48.53
2022-11-25T16:54:31.824Z,30.30
2022-11-25T16:56:58.995Z,29.20
2022-11-25T16:59:30.502Z,24.67
2022-11-25T17:01:58.853Z,27.77
2022-11-25T17:04:25.795Z,27.17
2022-11-25T17:09:34.894Z,22.67
2022-11-25T17:12:01.977Z,18.63
2022-11-25T17:14:32.994Z,20.47
2022-11-25T17:17:00.786Z,18.77
2022-11-25T17:19:28.076Z,17.80
2022-11-25T17:21:54.962Z,22.80
2022-11-25T17:24:24.114Z,36.17
2022-11-25T17:27:05.247Z,25.50
2022-11-25T17:29:35.928Z,24.47
2022-11-25T17:32:13.531Z,25.20
2022-11-25T17:34:40.519Z,23.70
2022-11-25T17:37:23.171Z,24.53
2022-11-25T17:39:52.752Z,23.17
2022-11-25T17:42:30.186Z,24.17
2022-11-25T17:45:03.367Z,23.73
2022-11-25T17:47:30.602Z,22.07
2022-11-25T17:49:57.930Z,21.73
2022-11-25T17:52:26.067Z,39.93
2022-11-25T17:54:53.053Z,32.23
2022-11-25T17:57:21.767Z,25.50
2022-11-25T17:59:49.068Z,28.77
2022-11-25T18:02:18.824Z,25.10
2022-11-25T18:04:46.014Z,26.73
2022-11-25T18:07:12.887Z,24.70
2022-11-25T18:09:39.767Z,26.53
2022-11-25T18:12:17.082Z,22.77
2022-11-25T18:14:44.829Z,25.00
2022-11-25T18:17:16.706Z,25.63
2022-11-25T18:19:43.842Z,26.63
2022-11-25T18:22:18.458Z,28.10
2022-11-25T18:24:45.951Z,29.83
2022-11-25T18:27:24.089Z,25.13
2022-11-25T18:29:51.756Z,24.07
2022-11-25T18:32:18.797Z,22.60
2022-11-25T18:34:46.210Z,25.17
2022-11-25T18:37:13.434Z,23.73
2022-11-25T18:39:40.680Z,24.80
2022-11-25T18:42:08.155Z,25.87
2022-11-25T18:44:39.791Z,28.17
2022-11-25T18:47:11.681Z,27.53
2022-11-25T18:49:39.026Z,23.03
2022-11-25T18:52:06.983Z,32.30
2022-11-25T18:54:33.816Z,26.73
2022-11-25T18:57:00.994Z,25.93
2022-11-25T18:59:35.054Z,25.33
2022-11-25T19:02:02.259Z,26.33
2022-11-25T19:04:29.355Z,24.53
2022-11-25T19:06:56.260Z,26.37
2022-11-25T19:09:23.176Z,25.60
2022-11-25T19:11:53.186Z,37.47
2022-11-25T19:14:29.034Z,36.20
2022-11-25T19:16:59.023Z,52.13
2022-11-25T19:19:26.150Z,45.47
2022-11-25T19:21:53.363Z,47.97
2022-11-25T19:24:20.212Z,48.00
2022-11-25T19:26:49.877Z,53.70
2022-11-25T19:29:29.345Z,50.97
2022-11-25T19:31:58.019Z,41.83
2022-11-25T19:34:37.058Z,43.73
2022-11-25T19:37:03.989Z,42.37
2022-11-25T19:39:35.983Z,41.87
2022-11-25T19:42:02.911Z,39.63
2022-11-25T19:44:29.675Z,33.47
2022-11-25T19:47:14.797Z,31.67
2022-11-25T19:49:43.090Z,28.53
2022-11-25T19:52:19.574Z,28.93
2022-11-25T19:54:46.504Z,30.67
2022-11-25T19:57:23.261Z,33.50
2022-11-25T19:59:50.169Z,31.37
2022-11-25T20:02:23.184Z,36.63
2022-11-25T20:04:53.646Z,29.43
2022-11-25T20:07:21.583Z,28.53
2022-11-25T20:09:51.179Z,28.67
2022-11-25T20:12:25.217Z,31.80
2022-11-25T20:14:52.218Z,33.03
2022-11-25T20:17:33.452Z,33.50
2022-11-25T20:20:05.835Z,25.67
2022-11-25T20:22:39.808Z,26.93
2022-11-25T20:25:10.603Z,31.43
2022-11-25T20:27:37.699Z,25.87
2022-11-25T20:30:15.699Z,31.80
2022-11-25T20:32:42.487Z,26.57
2022-11-25T20:35:11.025Z,35.47
2022-11-25T20:37:53.656Z,36.67
2022-11-25T20:40:24.934Z,35.37
2022-11-25T20:42:52.890Z,34.70
2022-11-25T20:45:22.451Z,38.57
2022-11-25T20:47:50.964Z,33.23
2022-11-25T20:50:20.738Z,35.07
2022-11-25T20:52:50.121Z,37.80
2022-11-25T20:55:24.820Z,31.17
2022-11-25T20:57:52.660Z,32.30
2022-11-25T21:00:21.402Z,30.70
2022-11-25T21:02:48.465Z,26.43
2022-11-25T21:05:15.890Z,34.60
2022-11-25T21:07:43.826Z,34.20
2022-11-25T21:10:26.026Z,31.43
2022-11-25T21:12:53.443Z,31.37
2022-11-25T21:15:23.581Z,29.73
2022-11-25T21:17:50.588Z,27.13
2022-11-25T21:20:19.566Z,31.60
2022-11-25T21:22:49.989Z,32.17
2022-11-25T21:25:22.486Z,29.10
2022-11-25T21:27:51.066Z,27.73
2022-11-25T21:30:32.938Z,29.60
2022-11-25T21:33:01.243Z,26.60
2022-11-25T21:35:33.133Z,33.50
2022-11-25T21:38:08.558Z,31.27
2022-11-25T21:40:41.014Z,33.40
2022-11-25T21:43:33.868Z,38.00
2022-11-25T21:46:03.987Z,31.67
2022-11-25T21:48:31.627Z,44.50
2022-11-25T21:50:59.966Z,43.43
2022-11-25T21:53:26.818Z,35.30
2022-11-25T21:55:53.939Z,32.67
2022-11-25T21:58:29.484Z,38.67
2022-11-25T22:01:01.593Z,43.20
2022-11-25T22:03:30.802Z,34.60
2022-11-25T22:05:57.938Z,43.90
2022-11-25T22:08:24.755Z,39.40
2022-11-25T22:10:54.476Z,45.13
2022-11-25T22:13:37.958Z,46.53
2022-11-25T22:16:05.566Z,46.27
2022-11-25T22:18:37.095Z,41.73
2022-11-25T22:21:04.065Z,52.60
2022-11-25T22:23:30.890Z,56.87
2022-11-25T22:25:58.267Z,55.57
2022-11-25T22:28:28.522Z,48.17
2022-11-25T22:31:00.367Z,43.87
2022-11-25T22:33:35.994Z,36.33
2022-11-25T22:36:03.976Z,45.17
2022-11-25T22:38:30.930Z,37.50
2022-11-25T22:41:03.928Z,34.07
2022-11-25T22:43:45.335Z,29.77
2022-11-25T22:46:12.500Z,32.23
2022-11-25T22:48:40.510Z,30.33
2022-11-25T22:51:21.329Z,29.97
2022-11-25T22:53:48.194Z,28.03
2022-11-25T22:56:18.786Z,30.13
2022-11-25T22:58:46.274Z,50.77
2022-11-25T23:01:15.423Z,47.37
2022-11-25T23:03:43.078Z,55.50
2022-11-25T23:06:13.600Z,64.53
2022-11-25T23:08:40.627Z,60.93
2022-11-25T23:11:13.043Z,51.07
2022-11-25T23:13:39.825Z,43.67
2022-11-25T23:16:07.260Z,40.80
2022-11-25T23:18:40.920Z,37.03
2022-11-25T23:21:22.087Z,36.33
2022-11-25T23:23:49.334Z,28.80
2022-11-25T23:26:16.614Z,30.30
2022-11-25T23:28:43.416Z,29.50
2022-11-25T23:31:13.703Z,26.97
2022-11-25T23:33:43.998Z,28.17
2022-11-25T23:36:29.711Z,24.73
2022-11-25T23:38:59.837Z,32.57
2022-11-25T23:41:32.840Z,29.63
2022-11-25T23:44:14.663Z,34.37
2022-11-25T23:46:42.310Z,31.63
2022-11-25T23:49:18.794Z,29.50
2022-11-25T23:51:46.042Z,31.93
2022-11-25T23:54:15.139Z,29.57
2022-11-25T23:56:42.760Z,31.93
2022-11-25T23:59:14.076Z,28.37
